sensor_id;sensor_type;location;lat;lon;timestamp;P1;durP1;ratioP1;P2;durP2;ratioP2
11572;SDS011;5842;52.426;4.886;2023-07-20T00:01:58;2.67;;;2.10;;
11572;SDS011;5842;52.426;4.886;2023-07-20T00:04:25;2.88;;;2.00;;
11572;SDS011;5842;52.426;4.886;2023-07-20T00:06:52;2.88;;;2.20;;
11572;SDS011;5842;52.426;4.886;2023-07-20T00:09:20;2.50;;;1.90;;
11572;SDS011;5842;52.426;4.886;2023-07-20T00:11:50;3.30;;;2.10;;
11572;SDS011;5842;52.426;4.886;2023-07-20T00:14:18;2.10;;;2.00;;
11572;SDS011;5842;52.426;4.886;2023-07-20T00:16:46;2.92;;;2.20;;
11572;SDS011;5842;52.426;4.886;2023-07-20T00:19:14;2.23;;;2.03;;
11572;SDS011;5842;52.426;4.886;2023-07-20T00:21:42;2.70;;;2.30;;
11572;SDS011;5842;52.426;4.886;2023-07-20T00:24:10;3.08;;;2.20;;
11572;SDS011;5842;52.426;4.886;2023-07-20T00:26:37;2.45;;;2.20;;
11572;SDS011;5842;52.426;4.886;2023-07-20T00:29:07;2.58;;;2.28;;
11572;SDS011;5842;52.426;4.886;2023-07-20T00:31:37;3.25;;;2.50;;
11572;SDS011;5842;52.426;4.886;2023-07-20T00:34:05;3.90;;;2.40;;
11572;SDS011;5842;52.426;4.886;2023-07-20T00:36:32;2.95;;;2.50;;
11572;SDS011;5842;52.426;4.886;2023-07-20T00:39:00;2.93;;;2.33;;
11572;SDS011;5842;52.426;4.886;2023-07-20T00:41:28;2.87;;;2.40;;
11572;SDS011;5842;52.426;4.886;2023-07-20T00:43:57;4.15;;;2.60;;
11572;SDS011;5842;52.426;4.886;2023-07-20T00:46:26;3.90;;;2.90;;
11572;SDS011;5842;52.426;4.886;2023-07-20T00:48:53;3.40;;;2.90;;
11572;SDS011;5842;52.426;4.886;2023-07-20T00:51:21;3.35;;;3.00;;
11572;SDS011;5842;52.426;4.886;2023-07-20T00:53:50;4.40;;;3.50;;
11572;SDS011;5842;52.426;4.886;2023-07-20T01:01:12;4.93;;;4.10;;
11572;SDS011;5842;52.426;4.886;2023-07-20T01:15:58;5.63;;;4.60;;
11572;SDS011;5842;52.426;4.886;2023-07-20T01:18:28;5.22;;;4.65;;
11572;SDS011;5842;52.426;4.886;2023-07-20T01:20:54;6.05;;;4.50;;
11572;SDS011;5842;52.426;4.886;2023-07-20T01:29:11;6.53;;;4.80;;
11572;SDS011;5842;52.426;4.886;2023-07-20T01:31:46;5.03;;;4.47;;
11572;SDS011;5842;52.426;4.886;2023-07-20T01:34:17;5.53;;;4.70;;
11572;SDS011;5842;52.426;4.886;2023-07-20T01:36:45;6.32;;;5.20;;
11572;SDS011;5842;52.426;4.886;2023-07-20T01:39:13;6.57;;;5.65;;
11572;SDS011;5842;52.426;4.886;2023-07-20T01:41:41;4.75;;;4.30;;
11572;SDS011;5842;52.426;4.886;2023-07-20T01:44:18;4.97;;;4.30;;
11572;SDS011;5842;52.426;4.886;2023-07-20T01:46:48;5.53;;;4.90;;
11572;SDS011;5842;52.426;4.886;2023-07-20T01:49:15;5.47;;;4.70;;
11572;SDS011;5842;52.426;4.886;2023-07-20T01:51:43;5.13;;;4.60;;
11572;SDS011;5842;52.426;4.886;2023-07-20T01:54:10;7.18;;;4.57;;
11572;SDS011;5842;52.426;4.886;2023-07-20T01:56:38;5.57;;;4.77;;
11572;SDS011;5842;52.426;4.886;2023-07-20T01:59:06;5.18;;;4.68;;
11572;SDS011;5842;52.426;4.886;2023-07-20T02:01:33;6.32;;;4.57;;
11572;SDS011;5842;52.426;4.886;2023-07-20T02:04:03;5.88;;;4.80;;
11572;SDS011;5842;52.426;4.886;2023-07-20T02:06:31;4.80;;;4.30;;
11572;SDS011;5842;52.426;4.886;2023-07-20T02:08:59;5.65;;;4.55;;
11572;SDS011;5842;52.426;4.886;2023-07-20T02:11:27;5.60;;;5.00;;
11572;SDS011;5842;52.426;4.886;2023-07-20T02:13:54;6.45;;;4.90;;
11572;SDS011;5842;52.426;4.886;2023-07-20T02:16:22;6.55;;;5.00;;
11572;SDS011;5842;52.426;4.886;2023-07-20T02:18:49;5.40;;;4.63;;
11572;SDS011;5842;52.426;4.886;2023-07-20T02:21:22;5.90;;;4.65;;
11572;SDS011;5842;52.426;4.886;2023-07-20T02:23:49;6.32;;;4.60;;
11572;SDS011;5842;52.426;4.886;2023-07-20T02:26:17;6.20;;;4.70;;
11572;SDS011;5842;52.426;4.886;2023-07-20T02:28:44;4.70;;;4.30;;
11572;SDS011;5842;52.426;4.886;2023-07-20T02:31:12;5.80;;;4.60;;
11572;SDS011;5842;52.426;4.886;2023-07-20T02:33:39;5.80;;;4.45;;
11572;SDS011;5842;52.426;4.886;2023-07-20T02:36:07;5.75;;;4.90;;
11572;SDS011;5842;52.426;4.886;2023-07-20T02:38:36;7.47;;;5.18;;
11572;SDS011;5842;52.426;4.886;2023-07-20T02:41:04;5.55;;;4.95;;
11572;SDS011;5842;52.426;4.886;2023-07-20T02:43:32;6.32;;;5.03;;
11572;SDS011;5842;52.426;4.886;2023-07-20T02:46:01;7.07;;;5.00;;
11572;SDS011;5842;52.426;4.886;2023-07-20T02:48:29;5.65;;;4.88;;
11572;SDS011;5842;52.426;4.886;2023-07-20T02:50:58;5.18;;;4.68;;
11572;SDS011;5842;52.426;4.886;2023-07-20T02:53:25;6.50;;;5.60;;
11572;SDS011;5842;52.426;4.886;2023-07-20T02:55:54;6.73;;;5.30;;
11572;SDS011;5842;52.426;4.886;2023-07-20T02:58:22;7.00;;;5.30;;
11572;SDS011;5842;52.426;4.886;2023-07-20T03:00:49;6.43;;;5.38;;
11572;SDS011;5842;52.426;4.886;2023-07-20T03:03:17;5.65;;;4.95;;
11572;SDS011;5842;52.426;4.886;2023-07-20T03:05:45;8.25;;;5.45;;
11572;SDS011;5842;52.426;4.886;2023-07-20T03:08:12;6.18;;;4.70;;
11572;SDS011;5842;52.426;4.886;2023-07-20T03:10:40;5.57;;;4.97;;
11572;SDS011;5842;52.426;4.886;2023-07-20T03:13:09;5.30;;;4.80;;
11572;SDS011;5842;52.426;4.886;2023-07-20T03:15:38;5.17;;;4.53;;
11572;SDS011;5842;52.426;4.886;2023-07-20T03:18:06;5.13;;;4.50;;
11572;SDS011;5842;52.426;4.886;2023-07-20T03:20:34;5.10;;;4.60;;
11572;SDS011;5842;52.426;4.886;2023-07-20T03:23:02;6.45;;;4.70;;
11572;SDS011;5842;52.426;4.886;2023-07-20T03:25:30;5.47;;;4.80;;
11572;SDS011;5842;52.426;4.886;2023-07-20T03:27:58;5.53;;;4.50;;
11572;SDS011;5842;52.426;4.886;2023-07-20T03:30:27;5.15;;;4.60;;
11572;SDS011;5842;52.426;4.886;2023-07-20T03:32:55;6.32;;;4.60;;
11572;SDS011;5842;52.426;4.886;2023-07-20T03:35:22;6.03;;;4.90;;
11572;SDS011;5842;52.426;4.886;2023-07-20T03:37:50;4.95;;;4.28;;
11572;SDS011;5842;52.426;4.886;2023-07-20T03:40:17;4.70;;;4.15;;
11572;SDS011;5842;52.426;4.886;2023-07-20T03:42:45;7.70;;;4.90;;
11572;SDS011;5842;52.426;4.886;2023-07-20T03:45:12;6.20;;;4.20;;
11572;SDS011;5842;52.426;4.886;2023-07-20T03:47:42;4.57;;;4.10;;
11572;SDS011;5842;52.426;4.886;2023-07-20T03:50:10;4.72;;;4.07;;
11572;SDS011;5842;52.426;4.886;2023-07-20T03:52:38;4.38;;;3.92;;
11572;SDS011;5842;52.426;4.886;2023-07-20T03:55:06;5.35;;;4.13;;
11572;SDS011;5842;52.426;4.886;2023-07-20T03:57:33;4.80;;;4.30;;
11572;SDS011;5842;52.426;4.886;2023-07-20T04:00:01;4.30;;;3.90;;
11572;SDS011;5842;52.426;4.886;2023-07-20T04:02:32;4.35;;;3.95;;
11572;SDS011;5842;52.426;4.886;2023-07-20T04:05:01;4.38;;;3.97;;
11572;SDS011;5842;52.426;4.886;2023-07-20T04:07:29;4.18;;;3.78;;
11572;SDS011;5842;52.426;4.886;2023-07-20T04:09:57;5.40;;;3.60;;
11572;SDS011;5842;52.426;4.886;2023-07-20T04:12:24;4.38;;;3.60;;
11572;SDS011;5842;52.426;4.886;2023-07-20T04:14:52;3.95;;;3.45;;
11572;SDS011;5842;52.426;4.886;2023-07-20T04:17:19;4.65;;;3.60;;
11572;SDS011;5842;52.426;4.886;2023-07-20T04:19:47;5.25;;;3.60;;
11572;SDS011;5842;52.426;4.886;2023-07-20T04:22:16;5.05;;;3.60;;
11572;SDS011;5842;52.426;4.886;2023-07-20T04:24:44;4.60;;;3.60;;
11572;SDS011;5842;52.426;4.886;2023-07-20T04:27:11;4.10;;;3.70;;
11572;SDS011;5842;52.426;4.886;2023-07-20T04:29:39;4.78;;;3.33;;
11572;SDS011;5842;52.426;4.886;2023-07-20T04:32:07;4.25;;;3.35;;
11572;SDS011;5842;52.426;4.886;2023-07-20T04:34:42;3.20;;;2.90;;
11572;SDS011;5842;52.426;4.886;2023-07-20T04:37:10;3.45;;;2.80;;
11572;SDS011;5842;52.426;4.886;2023-07-20T10:00:05;2.13;;;1.60;;
11572;SDS011;5842;52.426;4.886;2023-07-20T10:07:45;2.30;;;1.80;;
11572;SDS011;5842;52.426;4.886;2023-07-20T12:42:22;2.83;;;1.67;;
11572;SDS011;5842;52.426;4.886;2023-07-20T13:10:55;2.22;;;1.20;;
11572;SDS011;5842;52.426;4.886;2023-07-20T16:53:25;3.67;;;3.13;;
11572;SDS011;5842;52.426;4.886;2023-07-20T18:11:47;1.52;;;1.23;;
11572;SDS011;5842;52.426;4.886;2023-07-20T18:14:20;1.20;;;1.10;;
11572;SDS011;5842;52.426;4.886;2023-07-20T18:32:28;1.83;;;1.40;;
11572;SDS011;5842;52.426;4.886;2023-07-20T18:35:02;2.28;;;1.40;;
11572;SDS011;5842;52.426;4.886;2023-07-20T18:37:36;1.50;;;1.40;;
11572;SDS011;5842;52.426;4.886;2023-07-20T18:40:08;1.80;;;1.42;;
11572;SDS011;5842;52.426;4.886;2023-07-20T18:42:40;2.35;;;1.70;;
11572;SDS011;5842;52.426;4.886;2023-07-20T18:47:49;1.50;;;1.40;;
11572;SDS011;5842;52.426;4.886;2023-07-20T18:50:32;2.38;;;1.92;;
11572;SDS011;5842;52.426;4.886;2023-07-20T18:53:14;2.00;;;1.50;;
11572;SDS011;5842;52.426;4.886;2023-07-20T18:56:16;1.92;;;1.60;;
11572;SDS011;5842;52.426;4.886;2023-07-20T18:58:57;1.63;;;1.53;;
11572;SDS011;5842;52.426;4.886;2023-07-20T19:01:29;1.60;;;1.50;;
11572;SDS011;5842;52.426;4.886;2023-07-20T19:04:07;3.10;;;1.60;;
11572;SDS011;5842;52.426;4.886;2023-07-20T19:06:40;1.75;;;1.60;;
11572;SDS011;5842;52.426;4.886;2023-07-20T19:09:12;2.05;;;1.52;;
11572;SDS011;5842;52.426;4.886;2023-07-20T19:11:45;1.70;;;1.50;;
11572;SDS011;5842;52.426;4.886;2023-07-20T19:14:19;1.50;;;1.40;;
11572;SDS011;5842;52.426;4.886;2023-07-20T19:16:51;2.75;;;1.60;;
11572;SDS011;5842;52.426;4.886;2023-07-20T19:19:28;2.28;;;1.60;;
11572;SDS011;5842;52.426;4.886;2023-07-20T19:22:00;2.20;;;1.80;;
11572;SDS011;5842;52.426;4.886;2023-07-20T19:24:34;2.80;;;1.90;;
11572;SDS011;5842;52.426;4.886;2023-07-20T19:27:07;2.92;;;1.88;;
11572;SDS011;5842;52.426;4.886;2023-07-20T19:29:41;3.60;;;1.90;;
11572;SDS011;5842;52.426;4.886;2023-07-20T19:32:17;2.10;;;1.65;;
11572;SDS011;5842;52.426;4.886;2023-07-20T19:39:57;2.50;;;1.80;;
11572;SDS011;5842;52.426;4.886;2023-07-20T19:42:33;2.50;;;1.70;;
11572;SDS011;5842;52.426;4.886;2023-07-20T19:45:16;3.83;;;2.95;;
11572;SDS011;5842;52.426;4.886;2023-07-20T19:47:49;3.20;;;2.22;;
11572;SDS011;5842;52.426;4.886;2023-07-20T19:50:22;2.00;;;1.90;;
11572;SDS011;5842;52.426;4.886;2023-07-20T19:52:56;2.05;;;1.85;;
11572;SDS011;5842;52.426;4.886;2023-07-20T19:55:31;1.80;;;1.70;;
11572;SDS011;5842;52.426;4.886;2023-07-20T19:58:04;2.17;;;1.98;;
11572;SDS011;5842;52.426;4.886;2023-07-20T20:00:40;3.90;;;2.77;;
11572;SDS011;5842;52.426;4.886;2023-07-20T20:03:12;3.10;;;2.60;;
11572;SDS011;5842;52.426;4.886;2023-07-20T20:05:45;3.08;;;2.35;;
11572;SDS011;5842;52.426;4.886;2023-07-20T20:08:17;3.75;;;2.50;;
11572;SDS011;5842;52.426;4.886;2023-07-20T20:10:56;2.80;;;2.35;;
11572;SDS011;5842;52.426;4.886;2023-07-20T20:13:29;2.35;;;2.15;;
11572;SDS011;5842;52.426;4.886;2023-07-20T20:16:03;4.88;;;2.40;;
11572;SDS011;5842;52.426;4.886;2023-07-20T20:18:35;3.08;;;2.28;;
11572;SDS011;5842;52.426;4.886;2023-07-20T20:21:11;2.85;;;2.30;;
11572;SDS011;5842;52.426;4.886;2023-07-20T20:23:43;2.38;;;1.95;;
11572;SDS011;5842;52.426;4.886;2023-07-20T20:26:20;2.67;;;2.30;;
11572;SDS011;5842;52.426;4.886;2023-07-20T20:28:52;4.30;;;2.53;;
11572;SDS011;5842;52.426;4.886;2023-07-20T20:31:26;2.70;;;2.50;;
11572;SDS011;5842;52.426;4.886;2023-07-20T20:33:59;2.33;;;2.00;;
11572;SDS011;5842;52.426;4.886;2023-07-20T20:36:31;2.83;;;2.53;;
11572;SDS011;5842;52.426;4.886;2023-07-20T20:39:04;3.20;;;2.70;;
11572;SDS011;5842;52.426;4.886;2023-07-20T20:41:41;2.83;;;2.60;;
11572;SDS011;5842;52.426;4.886;2023-07-20T20:44:14;4.38;;;2.50;;
11572;SDS011;5842;52.426;4.886;2023-07-20T20:46:53;2.92;;;2.22;;
11572;SDS011;5842;52.426;4.886;2023-07-20T20:49:27;2.78;;;2.50;;
11572;SDS011;5842;52.426;4.886;2023-07-20T20:52:00;2.55;;;2.33;;
11572;SDS011;5842;52.426;4.886;2023-07-20T20:54:34;3.03;;;2.30;;
11572;SDS011;5842;52.426;4.886;2023-07-20T20:57:10;2.80;;;2.60;;
11572;SDS011;5842;52.426;4.886;2023-07-20T20:59:43;2.70;;;2.50;;
11572;SDS011;5842;52.426;4.886;2023-07-20T21:02:16;3.72;;;2.90;;
11572;SDS011;5842;52.426;4.886;2023-07-20T21:04:51;3.17;;;2.88;;
11572;SDS011;5842;52.426;4.886;2023-07-20T21:07:25;3.20;;;2.90;;
11572;SDS011;5842;52.426;4.886;2023-07-20T21:10:05;2.93;;;2.67;;
11572;SDS011;5842;52.426;4.886;2023-07-20T21:12:42;3.00;;;2.70;;
11572;SDS011;5842;52.426;4.886;2023-07-20T21:15:16;3.90;;;3.00;;
11572;SDS011;5842;52.426;4.886;2023-07-20T21:17:50;3.78;;;2.92;;
11572;SDS011;5842;52.426;4.886;2023-07-20T21:20:23;3.47;;;3.00;;
11572;SDS011;5842;52.426;4.886;2023-07-20T21:22:56;3.25;;;2.80;;
11572;SDS011;5842;52.426;4.886;2023-07-20T21:25:34;3.20;;;2.90;;
11572;SDS011;5842;52.426;4.886;2023-07-20T21:28:13;3.30;;;3.00;;
11572;SDS011;5842;52.426;4.886;2023-07-20T21:30:45;3.27;;;2.97;;
11572;SDS011;5842;52.426;4.886;2023-07-20T21:33:18;3.10;;;2.80;;
11572;SDS011;5842;52.426;4.886;2023-07-20T21:35:51;2.92;;;2.63;;
11572;SDS011;5842;52.426;4.886;2023-07-20T21:38:24;4.90;;;2.72;;
11572;SDS011;5842;52.426;4.886;2023-07-20T21:40:58;3.15;;;2.50;;
11572;SDS011;5842;52.426;4.886;2023-07-20T21:43:33;3.33;;;2.50;;
11572;SDS011;5842;52.426;4.886;2023-07-20T21:46:06;4.80;;;2.70;;
11572;SDS011;5842;52.426;4.886;2023-07-20T21:48:38;3.35;;;2.80;;
11572;SDS011;5842;52.426;4.886;2023-07-20T21:51:13;4.60;;;3.10;;
11572;SDS011;5842;52.426;4.886;2023-07-20T21:53:46;2.92;;;2.63;;
11572;SDS011;5842;52.426;4.886;2023-07-20T21:56:18;3.88;;;2.95;;
11572;SDS011;5842;52.426;4.886;2023-07-20T21:58:54;3.28;;;2.97;;
11572;SDS011;5842;52.426;4.886;2023-07-20T22:01:27;3.73;;;3.07;;
11572;SDS011;5842;52.426;4.886;2023-07-20T22:03:59;3.42;;;3.00;;
11572;SDS011;5842;52.426;4.886;2023-07-20T22:06:34;3.72;;;2.88;;
11572;SDS011;5842;52.426;4.886;2023-07-20T22:09:13;3.13;;;2.80;;
11572;SDS011;5842;52.426;4.886;2023-07-20T22:11:52;4.20;;;3.60;;
11572;SDS011;5842;52.426;4.886;2023-07-20T22:14:28;4.10;;;3.78;;
11572;SDS011;5842;52.426;4.886;2023-07-20T22:17:01;4.80;;;4.32;;
11572;SDS011;5842;52.426;4.886;2023-07-20T22:19:34;4.63;;;4.13;;
11572;SDS011;5842;52.426;4.886;2023-07-20T22:22:07;4.40;;;4.00;;
11572;SDS011;5842;52.426;4.886;2023-07-20T22:24:39;4.80;;;4.30;;
11572;SDS011;5842;52.426;4.886;2023-07-20T22:27:12;4.70;;;4.03;;
11572;SDS011;5842;52.426;4.886;2023-07-20T22:29:47;4.63;;;4.22;;
11572;SDS011;5842;52.426;4.886;2023-07-20T22:32:20;4.90;;;4.40;;
11572;SDS011;5842;52.426;4.886;2023-07-20T22:34:53;5.22;;;4.28;;
11572;SDS011;5842;52.426;4.886;2023-07-20T22:37:26;4.32;;;3.92;;
11572;SDS011;5842;52.426;4.886;2023-07-20T22:39:59;4.22;;;3.83;;
11572;SDS011;5842;52.426;4.886;2023-07-20T22:42:32;4.53;;;3.92;;
11572;SDS011;5842;52.426;4.886;2023-07-20T22:45:12;4.82;;;4.28;;
11572;SDS011;5842;52.426;4.886;2023-07-20T22:47:45;4.55;;;3.90;;
11572;SDS011;5842;52.426;4.886;2023-07-20T22:50:17;4.97;;;4.40;;
11572;SDS011;5842;52.426;4.886;2023-07-20T22:52:50;5.10;;;4.00;;
11572;SDS011;5842;52.426;4.886;2023-07-20T22:55:23;4.47;;;4.07;;
11572;SDS011;5842;52.426;4.886;2023-07-20T22:57:57;4.22;;;3.83;;
11572;SDS011;5842;52.426;4.886;2023-07-20T23:00:32;4.47;;;3.90;;
11572;SDS011;5842;52.426;4.886;2023-07-20T23:03:04;4.50;;;4.05;;
11572;SDS011;5842;52.426;4.886;2023-07-20T23:05:37;5.32;;;4.22;;
11572;SDS011;5842;52.426;4.886;2023-07-20T23:08:10;4.72;;;4.25;;
11572;SDS011;5842;52.426;4.886;2023-07-20T23:10:42;6.55;;;4.20;;
11572;SDS011;5842;52.426;4.886;2023-07-20T23:13:15;5.07;;;4.38;;
11572;SDS011;5842;52.426;4.886;2023-07-20T23:15:52;4.47;;;4.05;;
11572;SDS011;5842;52.426;4.886;2023-07-20T23:18:25;4.82;;;4.32;;
11572;SDS011;5842;52.426;4.886;2023-07-20T23:21:00;4.32;;;3.92;;
11572;SDS011;5842;52.426;4.886;2023-07-20T23:23:37;4.47;;;4.07;;
11572;SDS011;5842;52.426;4.886;2023-07-20T23:26:11;4.47;;;4.07;;
11572;SDS011;5842;52.426;4.886;2023-07-20T23:28:43;4.75;;;4.25;;
11572;SDS011;5842;52.426;4.886;2023-07-20T23:31:17;4.75;;;4.13;;
11572;SDS011;5842;52.426;4.886;2023-07-20T23:33:51;6.57;;;4.30;;
11572;SDS011;5842;52.426;4.886;2023-07-20T23:36:25;4.50;;;4.10;;
11572;SDS011;5842;52.426;4.886;2023-07-20T23:38:59;5.07;;;4.10;;
11572;SDS011;5842;52.426;4.886;2023-07-20T23:41:33;5.00;;;4.60;;
11572;SDS011;5842;52.426;4.886;2023-07-20T23:44:06;4.75;;;4.22;;
11572;SDS011;5842;52.426;4.886;2023-07-20T23:46:43;5.10;;;4.50;;
11572;SDS011;5842;52.426;4.886;2023-07-20T23:49:16;4.70;;;4.20;;
11572;SDS011;5842;52.426;4.886;2023-07-20T23:51:50;5.45;;;4.22;;
11572;SDS011;5842;52.426;4.886;2023-07-20T23:54:25;4.68;;;4.03;;
11572;SDS011;5842;52.426;4.886;2023-07-20T23:56:58;5.00;;;4.10;;
11572;SDS011;5842;52.426;4.886;2023-07-20T23:59:40;4.57;;;4.13;;
